createdAt,value
2019-05-10T00:00:55.002Z,42.43
2019-05-10T00:03:41.821Z,40.47
2019-05-10T00:06:28.726Z,39.37
2019-05-10T00:08:56.902Z,37.57
2019-05-10T00:11:27.332Z,39.63
2019-05-10T00:13:57.833Z,41.60
2019-05-10T00:16:27.054Z,40.43
2019-05-10T00:18:56.149Z,34.07
2019-05-10T00:21:25.017Z,39.13
2019-05-10T00:23:54.032Z,42.27
2019-05-10T00:26:22.922Z,40.17
2019-05-10T00:28:51.918Z,42.10
2019-05-10T00:31:20.906Z,42.07
2019-05-10T00:33:49.799Z,41.67
2019-05-10T00:36:19.096Z,44.83
2019-05-10T00:38:48.091Z,43.83
2019-05-10T00:41:16.959Z,47.23
2019-05-10T00:43:45.870Z,55.57
2019-05-10T00:46:14.967Z,58.87
2019-05-10T00:48:43.857Z,64.33
2019-05-10T00:51:12.725Z,58.37
2019-05-10T00:53:41.715Z,59.60
2019-05-10T00:56:10.629Z,56.63
2019-05-10T00:58:39.519Z,49.10
2019-05-10T01:01:08.513Z,50.40
2019-05-10T01:03:37.405Z,40.83
2019-05-10T01:06:06.405Z,42.37
2019-05-10T01:08:35.490Z,41.60
2019-05-10T01:11:04.488Z,41.60
2019-05-10T01:13:33.680Z,45.43
2019-05-10T01:16:02.878Z,46.67
2019-05-10T01:18:31.744Z,48.07
2019-05-10T01:21:00.633Z,43.27
2019-05-10T01:23:29.651Z,44.93
2019-05-10T01:25:58.542Z,42.17
2019-05-10T01:28:27.430Z,43.00
2019-05-10T01:30:56.424Z,56.87
2019-05-10T01:33:25.316Z,68.73
2019-05-10T01:35:54.209Z,66.63
2019-05-10T01:38:23.199Z,59.60
2019-05-10T01:40:52.091Z,65.20
2019-05-10T01:43:20.979Z,55.20
2019-05-10T01:45:49.970Z,61.10
2019-05-10T01:48:18.834Z,61.87
2019-05-10T01:50:47.727Z,60.27
2019-05-10T01:53:16.641Z,55.27
2019-05-10T01:55:52.209Z,57.70
2019-05-10T01:58:16.009Z,52.93
2019-05-10T02:00:44.929Z,56.83
2019-05-10T02:03:13.789Z,58.07
2019-05-10T02:05:42.644Z,51.57
2019-05-10T02:08:11.526Z,89.20
2019-05-10T02:10:40.862Z,86.70
2019-05-10T02:13:09.715Z,81.67
2019-05-10T02:15:38.611Z,67.63
2019-05-10T02:18:07.458Z,61.17
2019-05-10T02:20:36.288Z,68.53
2019-05-10T02:23:05.221Z,64.23
2019-05-10T02:25:34.047Z,62.43
2019-05-10T02:28:02.915Z,50.53
2019-05-10T02:30:31.804Z,38.67
2019-05-10T02:33:00.657Z,42.40
2019-05-10T02:35:29.554Z,50.57
2019-05-10T02:37:58.391Z,51.77
2019-05-10T02:40:27.238Z,47.80
2019-05-10T02:42:56.089Z,41.27
2019-05-10T02:45:24.993Z,48.10
2019-05-10T02:47:53.830Z,55.20
2019-05-10T02:50:23.687Z,62.47
2019-05-10T02:52:52.572Z,63.97
2019-05-10T02:55:21.822Z,66.50
2019-05-10T02:57:51.549Z,68.67
2019-05-10T03:00:20.649Z,67.93
2019-05-10T03:02:50.004Z,82.13
2019-05-10T03:05:18.864Z,75.87
2019-05-10T03:07:48.886Z,104.50
2019-05-10T03:10:17.833Z,84.97
2019-05-10T03:12:49.638Z,113.63
2019-05-10T03:15:18.690Z,96.33
2019-05-10T03:17:49.424Z,96.73
2019-05-10T03:20:18.283Z,77.40
2019-05-10T03:22:47.968Z,91.40
2019-05-10T03:25:17.111Z,79.17
2019-05-10T03:27:45.954Z,78.93
2019-05-10T03:30:15.065Z,86.33
2019-05-10T03:32:43.890Z,80.77
2019-05-10T03:35:12.748Z,107.93
2019-05-10T03:37:41.739Z,97.30
2019-05-10T03:40:10.690Z,81.67
2019-05-10T03:42:39.537Z,105.33
2019-05-10T03:45:09.150Z,73.90
2019-05-10T03:47:37.969Z,84.60
2019-05-10T03:50:08.474Z,79.17
2019-05-10T03:52:37.420Z,90.23
2019-05-10T03:55:06.854Z,87.60
2019-05-10T03:57:35.709Z,90.50
2019-05-10T04:00:12.099Z,60.27
2019-05-10T04:02:40.953Z,51.27
2019-05-10T04:05:11.296Z,49.33
2019-05-10T04:07:40.199Z,60.93
2019-05-10T04:10:09.486Z,62.90
2019-05-10T04:12:38.329Z,64.33
2019-05-10T04:15:09.184Z,58.60
2019-05-10T04:17:37.992Z,56.60
2019-05-10T04:20:08.147Z,57.73
2019-05-10T04:22:37.018Z,52.50
2019-05-10T04:25:06.883Z,50.63
2019-05-10T04:27:35.715Z,49.37
2019-05-10T04:30:06.431Z,59.50
2019-05-10T04:32:38.574Z,53.03
2019-05-10T04:35:09.023Z,49.07
2019-05-10T04:37:42.062Z,53.40
2019-05-10T04:40:11.317Z,44.47
2019-05-10T04:42:40.155Z,40.77
2019-05-10T04:45:09.379Z,41.50
2019-05-10T04:47:38.266Z,46.40
2019-05-10T04:50:07.185Z,45.93
2019-05-10T04:52:36.060Z,48.13
2019-05-10T04:55:06.904Z,46.40
2019-05-10T04:57:49.318Z,57.47
2019-05-10T05:00:08.778Z,63.07
2019-05-10T05:02:38.022Z,61.03
2019-05-10T05:05:07.796Z,44.13
2019-05-10T05:07:36.709Z,43.07
2019-05-10T05:10:07.435Z,42.47
2019-05-10T05:12:36.278Z,48.33
2019-05-10T05:15:09.220Z,45.47
2019-05-10T05:17:38.093Z,45.10
2019-05-10T05:20:07.359Z,51.13
2019-05-10T05:22:36.265Z,47.87
2019-05-10T05:25:07.320Z,46.00
2019-05-10T05:27:36.165Z,41.27
2019-05-10T05:30:10.041Z,40.33
2019-05-10T05:32:44.432Z,41.17
2019-05-10T05:35:09.397Z,41.90
2019-05-10T05:37:38.313Z,40.27
2019-05-10T05:40:08.467Z,43.73
2019-05-10T05:42:37.308Z,30.70
2019-05-10T05:45:08.113Z,31.77
2019-05-10T05:47:37.727Z,29.57
2019-05-10T05:50:07.705Z,26.30
2019-05-10T05:52:36.712Z,25.73
2019-05-10T05:55:08.906Z,26.07
2019-05-10T05:57:37.759Z,25.67
2019-05-10T06:00:15.745Z,22.70
2019-05-10T06:02:46.434Z,20.83
2019-05-10T06:05:32.898Z,17.83
2019-05-10T06:07:45.691Z,19.92
2019-05-10T06:10:17.275Z,22.93
2019-05-10T06:12:50.320Z,19.55
2019-05-10T06:15:15.760Z,18.90
2019-05-10T06:17:44.665Z,17.90
2019-05-10T06:20:13.639Z,12.80
2019-05-10T06:22:43.886Z,10.75
2019-05-10T06:25:13.058Z,12.55
2019-05-10T06:27:43.221Z,8.78
2019-05-10T06:30:12.645Z,9.28
2019-05-10T06:32:41.569Z,8.63
2019-05-10T06:35:14.243Z,8.50
2019-05-10T06:37:41.089Z,10.18
2019-05-10T06:40:10.349Z,11.28
2019-05-10T06:42:39.200Z,10.03
2019-05-10T06:45:14.247Z,9.53
2019-05-10T06:47:42.158Z,9.85
2019-05-10T06:50:11.101Z,9.40
2019-05-10T06:52:40.017Z,11.93
2019-05-10T06:55:09.101Z,13.20
2019-05-10T06:57:37.952Z,15.80
2019-05-10T07:00:08.263Z,14.10
2019-05-10T07:02:37.159Z,12.68
2019-05-10T07:05:06.328Z,10.90
2019-05-10T07:07:43.656Z,12.53
2019-05-10T07:10:18.347Z,9.40
2019-05-10T07:12:39.553Z,15.55
2019-05-10T07:15:09.261Z,15.63
2019-05-10T07:17:45.206Z,10.78
2019-05-10T07:20:08.992Z,16.25
2019-05-10T07:22:37.844Z,10.32
2019-05-10T07:25:07.713Z,13.70
2019-05-10T07:27:40.614Z,12.23
2019-05-10T07:30:09.587Z,10.53
2019-05-10T07:32:38.481Z,11.22
2019-05-10T07:35:07.667Z,12.03
2019-05-10T07:37:36.701Z,11.30
2019-05-10T07:40:08.707Z,14.05
2019-05-10T07:42:39.663Z,11.75
2019-05-10T07:45:08.167Z,11.43
2019-05-10T07:47:37.034Z,12.50
2019-05-10T07:50:09.938Z,13.65
2019-05-10T07:52:43.510Z,13.10
2019-05-10T07:55:10.640Z,13.80
2019-05-10T07:57:39.287Z,11.10
2019-05-10T08:00:08.554Z,11.60
2019-05-10T08:02:37.492Z,10.93
2019-05-10T08:05:10.866Z,9.63
2019-05-10T08:07:38.785Z,7.83
2019-05-10T08:10:08.853Z,6.05
2019-05-10T08:12:41.558Z,6.53
2019-05-10T08:15:08.799Z,6.72
2019-05-10T08:17:43.389Z,7.62
2019-05-10T08:20:15.055Z,5.75
2019-05-10T08:22:42.290Z,9.50
2019-05-10T08:25:12.659Z,9.00
2019-05-10T08:27:43.996Z,5.85
2019-05-10T08:30:23.613Z,5.25
2019-05-10T08:32:42.520Z,6.85
2019-05-10T08:35:17.145Z,9.03
2019-05-10T08:37:43.249Z,9.95
2019-05-10T08:40:12.897Z,8.70
2019-05-10T08:42:48.116Z,7.08
2019-05-10T08:45:12.787Z,5.50
2019-05-10T08:47:42.629Z,6.03
2019-05-10T08:50:28.874Z,6.75
2019-05-10T08:52:42.642Z,5.40
2019-05-10T08:55:12.280Z,6.80
2019-05-10T08:57:44.516Z,5.42
2019-05-10T09:00:13.015Z,6.90
2019-05-10T09:02:42.831Z,7.97
2019-05-10T09:05:12.583Z,10.78
2019-05-10T09:07:43.012Z,6.72
2019-05-10T09:10:12.946Z,8.68
2019-05-10T09:12:51.042Z,10.03
2019-05-10T09:15:13.657Z,11.18
2019-05-10T09:17:43.176Z,7.03
2019-05-10T09:20:20.829Z,6.12
2019-05-10T09:22:43.189Z,6.75
2019-05-10T09:25:12.953Z,6.37
2019-05-10T09:27:43.128Z,10.18
2019-05-10T09:30:14.121Z,10.53
2019-05-10T09:32:43.892Z,9.43
2019-05-10T09:35:13.217Z,14.90
2019-05-10T09:37:42.376Z,12.65
2019-05-10T09:40:13.216Z,10.32
2019-05-10T09:42:43.578Z,10.53
2019-05-10T09:45:13.021Z,17.77
2019-05-10T09:47:43.357Z,9.78
2019-05-10T09:50:13.224Z,8.40
2019-05-10T09:52:42.121Z,9.35
2019-05-10T09:55:14.874Z,8.20
2019-05-10T09:57:41.722Z,6.00
2019-05-10T10:00:11.082Z,10.18
2019-05-10T10:02:40.907Z,7.30
2019-05-10T10:05:10.444Z,9.65
2019-05-10T10:07:39.317Z,7.90
2019-05-10T10:10:12.929Z,6.92
2019-05-10T10:12:38.829Z,11.43
2019-05-10T10:15:10.723Z,9.90
2019-05-10T10:17:42.209Z,9.98
2019-05-10T10:20:08.822Z,10.00
2019-05-10T10:22:38.265Z,5.22
2019-05-10T10:25:07.634Z,6.10
2019-05-10T10:27:39.349Z,11.47
2019-05-10T10:30:12.838Z,11.07
2019-05-10T10:32:39.768Z,6.43
2019-05-10T10:35:13.225Z,5.97
2019-05-10T10:37:39.502Z,5.70
2019-05-10T10:40:09.099Z,6.73
2019-05-10T10:42:38.423Z,6.63
2019-05-10T10:45:08.694Z,5.97
2019-05-10T10:47:38.039Z,6.67
2019-05-10T10:50:13.210Z,6.70
2019-05-10T10:52:38.670Z,2.43
2019-05-10T10:55:11.316Z,4.23
2019-05-10T10:57:39.319Z,4.50
2019-05-10T11:00:10.265Z,4.57
2019-05-10T11:02:41.501Z,4.57
2019-05-10T11:05:10.489Z,4.80
2019-05-10T11:07:44.350Z,6.20
2019-05-10T11:10:16.052Z,6.77
2019-05-10T11:12:41.280Z,4.40
2019-05-10T11:15:11.445Z,4.10
2019-05-10T11:17:40.927Z,4.27
2019-05-10T11:20:11.483Z,7.07
2019-05-10T11:22:42.095Z,7.23
2019-05-10T11:25:12.831Z,7.73
2019-05-10T11:27:42.010Z,4.47
2019-05-10T11:30:12.293Z,2.90
2019-05-10T11:32:41.817Z,3.93
2019-05-10T11:35:11.936Z,2.53
2019-05-10T11:37:45.388Z,3.87
2019-05-10T11:40:12.462Z,3.40
2019-05-10T11:42:43.660Z,3.23
2019-05-10T11:45:12.684Z,3.07
2019-05-10T11:47:42.396Z,2.77
2019-05-10T11:50:26.560Z,6.20
2019-05-10T11:52:42.225Z,3.83
2019-05-10T11:55:11.740Z,1.03
2019-05-10T11:57:44.118Z,2.50
2019-05-10T12:00:24.624Z,7.13
2019-05-10T12:03:01.097Z,3.03
2019-05-10T12:05:19.880Z,3.37
2019-05-10T12:07:46.033Z,2.30
2019-05-10T12:10:20.640Z,2.93
2019-05-10T12:13:00.451Z,1.77
2019-05-10T12:15:15.011Z,1.63
2019-05-10T12:17:46.876Z,1.67
2019-05-10T12:22:47.673Z,3.53
2019-05-10T12:25:37.558Z,2.17
2019-05-10T12:26:59.181Z,2.20
2019-05-10T12:27:51.494Z,1.57
2019-05-10T12:30:18.080Z,1.20
2019-05-10T12:32:56.259Z,2.33
2019-05-10T12:35:17.561Z,3.67
2019-05-10T12:40:45.616Z,1.73
2019-05-10T12:43:11.906Z,5.63
2019-05-10T12:45:41.804Z,4.50
2019-05-10T12:48:11.080Z,1.20
2019-05-10T12:50:43.686Z,7.33
2019-05-10T12:53:15.760Z,4.27
2019-05-10T12:55:41.046Z,5.87
2019-05-10T12:58:09.888Z,3.77
2019-05-10T13:00:38.737Z,2.97
2019-05-10T13:03:12.787Z,10.97
2019-05-10T13:05:51.342Z,4.63
2019-05-10T13:08:08.651Z,1.40
2019-05-10T13:10:43.165Z,1.90
2019-05-10T13:13:11.149Z,4.07
2019-05-10T13:15:40.040Z,7.73
2019-05-10T13:18:08.970Z,4.57
2019-05-10T13:20:38.719Z,3.93
2019-05-10T13:23:09.956Z,3.13
2019-05-10T13:25:38.302Z,5.03
2019-05-10T13:28:11.138Z,15.90
2019-05-10T13:30:37.667Z,6.93
2019-05-10T13:33:06.675Z,16.03
2019-05-10T13:35:35.526Z,5.63
2019-05-10T13:38:06.513Z,7.53
2019-05-10T13:40:39.194Z,12.50
2019-05-10T13:43:05.507Z,10.67
2019-05-10T13:45:37.854Z,3.67
2019-05-10T13:48:05.026Z,7.20
2019-05-10T13:50:33.900Z,15.03
2019-05-10T13:53:02.766Z,1.77
2019-05-10T13:55:31.762Z,3.60
2019-05-10T13:58:00.628Z,5.10
2019-05-10T14:00:34.177Z,5.53
2019-05-10T14:03:05.059Z,4.00
2019-05-10T14:05:30.571Z,5.10
2019-05-10T14:07:59.480Z,2.47
2019-05-10T14:10:28.409Z,4.70
2019-05-10T14:13:02.707Z,9.83
2019-05-10T14:15:27.791Z,4.77
2019-05-10T14:17:56.674Z,2.47
2019-05-10T14:20:27.505Z,4.67
2019-05-10T14:22:58.792Z,3.23
2019-05-10T14:25:29.359Z,1.77
2019-05-10T14:27:57.374Z,4.27
2019-05-10T14:30:26.229Z,3.40
2019-05-10T14:32:55.134Z,1.43
2019-05-10T14:35:24.535Z,1.17
2019-05-10T14:37:53.450Z,1.30
2019-05-10T14:40:30.681Z,1.37
2019-05-10T14:42:55.703Z,0.90
2019-05-10T14:45:24.588Z,3.70
2019-05-10T14:47:54.436Z,2.22
2019-05-10T14:50:26.199Z,3.37
2019-05-10T14:52:53.793Z,1.63
2019-05-10T14:55:27.983Z,1.90
2019-05-10T14:57:53.213Z,2.70
2019-05-10T15:00:22.463Z,1.80
2019-05-10T15:02:51.403Z,2.13
2019-05-10T15:05:20.242Z,1.67
2019-05-10T15:07:51.152Z,2.80
2019-05-10T15:10:19.675Z,3.97
2019-05-10T15:12:48.539Z,1.47
2019-05-10T15:15:17.475Z,4.20
2019-05-10T15:17:46.410Z,2.43
2019-05-10T15:20:15.564Z,2.97
2019-05-10T15:22:44.404Z,2.33
2019-05-10T15:25:14.780Z,3.80
2019-05-10T15:27:44.495Z,8.10
2019-05-10T15:30:13.700Z,1.20
2019-05-10T15:32:42.577Z,1.67
2019-05-10T15:35:12.146Z,8.43
2019-05-10T15:37:46.008Z,4.87
2019-05-10T15:40:12.049Z,1.90
2019-05-10T15:42:40.900Z,2.73
2019-05-10T15:45:14.654Z,5.77
2019-05-10T15:47:50.674Z,6.80
2019-05-10T15:50:11.532Z,3.57
2019-05-10T15:52:46.269Z,2.43
2019-05-10T15:55:11.270Z,2.30
2019-05-10T15:57:40.141Z,1.80
2019-05-10T16:00:09.451Z,3.10
2019-05-10T16:02:38.319Z,3.43
2019-05-10T16:05:23.295Z,4.50
2019-05-10T16:07:38.564Z,2.50
2019-05-10T16:10:08.229Z,4.07
2019-05-10T16:12:37.861Z,5.73
2019-05-10T16:15:13.532Z,3.20
2019-05-10T16:17:38.986Z,2.83
2019-05-10T16:20:08.137Z,3.53
2019-05-10T16:22:37.037Z,2.23
2019-05-10T16:25:07.207Z,2.70
2019-05-10T16:27:41.658Z,3.27
2019-05-10T16:30:12.018Z,4.33
2019-05-10T16:32:38.856Z,4.10
2019-05-10T16:35:12.883Z,4.90
2019-05-10T16:37:38.427Z,6.77
2019-05-10T16:40:07.872Z,9.90
2019-05-10T16:42:36.728Z,9.83
2019-05-10T16:45:06.240Z,8.23
2019-05-10T16:47:35.097Z,8.37
2019-05-10T16:50:08.294Z,10.80
2019-05-10T16:52:37.256Z,12.07
2019-05-10T16:55:09.724Z,8.93
2019-05-10T16:57:39.477Z,10.27
2019-05-10T17:00:10.715Z,8.17
2019-05-10T17:02:42.216Z,8.27
2019-05-10T17:05:15.165Z,6.03
2019-05-10T17:07:41.098Z,6.07
2019-05-10T17:10:10.173Z,7.03
2019-05-10T17:12:39.063Z,8.43
2019-05-10T17:15:08.463Z,9.47
2019-05-10T17:17:39.147Z,8.37
2019-05-10T17:20:13.870Z,23.97
2019-05-10T17:22:38.937Z,33.43
2019-05-10T17:25:08.702Z,39.30
2019-05-10T17:27:37.572Z,51.67
2019-05-10T17:30:06.918Z,38.23
2019-05-10T17:32:35.759Z,47.60
2019-05-10T17:35:06.915Z,55.00
2019-05-10T17:37:37.441Z,45.70
2019-05-10T17:40:10.143Z,48.37
2019-05-10T17:42:41.397Z,52.90
2019-05-10T17:45:09.767Z,42.43
2019-05-10T17:47:38.623Z,44.67
2019-05-10T17:50:08.085Z,54.33
2019-05-10T17:52:41.992Z,63.27
2019-05-10T17:55:16.074Z,54.40
2019-05-10T17:57:41.328Z,52.07
2019-05-10T18:00:10.879Z,50.80
2019-05-10T18:02:39.724Z,52.53
2019-05-10T18:05:08.785Z,63.20
2019-05-10T18:07:56.932Z,74.87
2019-05-10T18:10:25.876Z,70.33
2019-05-10T18:13:02.538Z,57.20
2019-05-10T18:15:27.665Z,47.37
2019-05-10T18:17:57.490Z,62.50
2019-05-10T18:20:26.359Z,111.83
2019-05-10T18:22:55.257Z,115.07
2019-05-10T18:25:24.127Z,89.27
2019-05-10T18:27:52.990Z,81.87
2019-05-10T18:30:22.100Z,83.67
2019-05-10T18:32:50.953Z,99.50
2019-05-10T18:35:19.856Z,147.33
2019-05-10T18:37:53.727Z,172.97
2019-05-10T18:40:19.327Z,83.87
2019-05-10T18:42:48.213Z,79.83
2019-05-10T18:45:17.097Z,83.10
2019-05-10T18:47:45.967Z,73.77
2019-05-10T18:50:14.935Z,96.47
2019-05-10T18:52:43.811Z,102.30
2019-05-10T18:55:12.866Z,118.97
2019-05-10T18:57:45.399Z,116.97
2019-05-10T19:00:17.563Z,98.83
2019-05-10T19:02:43.304Z,93.03
2019-05-10T19:05:13.499Z,82.47
2019-05-10T19:07:42.573Z,59.77
2019-05-10T19:10:11.542Z,54.53
2019-05-10T19:12:40.737Z,49.03
2019-05-10T19:15:15.408Z,51.27
2019-05-10T19:17:45.858Z,55.67
2019-05-10T19:20:18.239Z,58.03
2019-05-10T19:22:46.318Z,48.73
2019-05-10T19:25:15.181Z,46.07
2019-05-10T19:27:46.430Z,47.30
2019-05-10T19:30:19.983Z,48.53
2019-05-10T19:32:45.387Z,53.10
2019-05-10T19:35:14.407Z,58.37
2019-05-10T19:37:43.307Z,33.37
2019-05-10T19:40:12.375Z,39.93
2019-05-10T19:42:43.264Z,42.63
2019-05-10T19:45:12.824Z,44.47
2019-05-10T19:47:42.456Z,49.63
2019-05-10T19:50:11.380Z,56.47
2019-05-10T19:52:40.233Z,61.37
2019-05-10T19:55:12.939Z,60.47
2019-05-10T19:57:39.650Z,55.90
2019-05-10T20:00:08.729Z,55.33
2019-05-10T20:02:37.604Z,53.03
2019-05-10T20:05:06.751Z,54.43
2019-05-10T20:07:45.234Z,49.97
2019-05-10T20:10:07.671Z,45.60
2019-05-10T20:12:37.223Z,49.30
2019-05-10T20:15:07.651Z,48.17
2019-05-10T20:17:36.679Z,50.20
2019-05-10T20:20:07.434Z,47.37
2019-05-10T20:22:36.595Z,65.17
2019-05-10T20:25:08.992Z,60.33
2019-05-10T20:27:37.897Z,47.57
2019-05-10T20:30:07.457Z,47.10
2019-05-10T20:32:36.323Z,45.77
2019-05-10T20:35:07.580Z,40.00
2019-05-10T20:37:36.514Z,36.37
2019-05-10T20:40:06.989Z,37.60
2019-05-10T20:42:35.907Z,40.40
2019-05-10T20:45:08.162Z,38.70
2019-05-10T20:47:35.578Z,40.00
2019-05-10T20:50:05.306Z,37.27
2019-05-10T20:52:34.173Z,34.53
2019-05-10T20:55:04.408Z,31.33
2019-05-10T20:57:33.343Z,39.23
2019-05-10T21:00:02.204Z,35.30
2019-05-10T21:02:31.092Z,38.90
2019-05-10T21:05:00.008Z,41.60
2019-05-10T21:07:28.911Z,39.63
2019-05-10T21:09:58.006Z,51.40
2019-05-10T21:12:26.915Z,48.60
2019-05-10T21:14:56.145Z,46.03
2019-05-10T21:17:25.017Z,54.27
2019-05-10T21:19:53.943Z,65.40
2019-05-10T21:22:22.815Z,56.80
2019-05-10T21:24:51.696Z,52.50
2019-05-10T21:27:20.615Z,52.20
2019-05-10T21:29:49.467Z,48.77
2019-05-10T21:32:18.318Z,54.53
2019-05-10T21:34:47.230Z,69.80
2019-05-10T21:37:16.102Z,40.30
2019-05-10T21:39:44.967Z,36.37
2019-05-10T21:42:13.906Z,38.17
2019-05-10T21:44:42.978Z,45.63
2019-05-10T21:47:11.832Z,70.87
2019-05-10T21:49:40.738Z,81.03
2019-05-10T21:52:09.610Z,78.80
2019-05-10T21:54:38.452Z,79.40
2019-05-10T21:57:07.429Z,91.47
2019-05-10T21:59:36.363Z,61.13
2019-05-10T22:02:05.343Z,105.63
2019-05-10T22:04:34.279Z,111.00
2019-05-10T22:07:03.149Z,116.53
2019-05-10T22:09:32.023Z,117.13
2019-05-10T22:12:00.949Z,103.87
2019-05-10T22:14:29.858Z,108.07
2019-05-10T22:16:58.715Z,109.30
2019-05-10T22:19:27.638Z,108.27
2019-05-10T22:21:56.493Z,59.03
2019-05-10T22:24:25.338Z,48.30
2019-05-10T22:26:54.258Z,40.60
2019-05-10T22:29:23.146Z,46.90
2019-05-10T22:31:52.080Z,45.47
2019-05-10T22:34:20.980Z,46.53
2019-05-10T22:36:49.827Z,50.20
2019-05-10T22:39:18.680Z,52.10
2019-05-10T22:41:47.614Z,53.93
2019-05-10T22:44:16.461Z,51.20
2019-05-10T22:46:45.345Z,50.17
2019-05-10T22:49:14.272Z,50.10
2019-05-10T22:51:43.140Z,40.17
2019-05-10T22:54:12.014Z,44.17
2019-05-10T22:56:40.913Z,44.30
2019-05-10T22:59:09.785Z,48.13
2019-05-10T23:01:38.637Z,47.77
2019-05-10T23:04:07.524Z,48.33
2019-05-10T23:06:36.391Z,39.93
2019-05-10T23:09:23.530Z,47.83
2019-05-10T23:11:38.104Z,54.77
2019-05-10T23:14:06.993Z,55.63
2019-05-10T23:16:35.880Z,63.20
2019-05-10T23:19:04.776Z,59.10
2019-05-10T23:21:33.634Z,64.93
2019-05-10T23:24:04.078Z,63.93
2019-05-10T23:26:32.970Z,62.77
2019-05-10T23:29:01.840Z,61.93
2019-05-10T23:31:30.700Z,69.53
2019-05-10T23:33:59.648Z,65.83
2019-05-10T23:36:28.621Z,63.23
2019-05-10T23:38:57.481Z,41.87
2019-05-10T23:41:26.369Z,46.87
2019-05-10T23:43:55.217Z,39.67
2019-05-10T23:46:24.090Z,43.73
2019-05-10T23:48:52.993Z,41.60
2019-05-10T23:51:21.858Z,37.77
2019-05-10T23:53:50.727Z,38.33
2019-05-10T23:56:19.683Z,39.50
2019-05-10T23:58:48.540Z,32.03
